createdAt,value
2022-08-05T00:01:36.145Z,101635.50
2022-08-05T00:04:18.688Z,101640.97
2022-08-05T00:06:46.995Z,101647.44
2022-08-05T00:09:15.891Z,101649.03
2022-08-05T00:11:49.497Z,101654.50
2022-08-05T00:14:29.146Z,101652.91
2022-08-05T00:16:57.012Z,101656.03
2022-08-05T00:19:33.830Z,101657.75
2022-08-05T00:22:11.734Z,101645.22
2022-08-05T00:24:42.555Z,101648.47
2022-08-05T00:27:10.488Z,101640.78
2022-08-05T00:29:43.664Z,101641.59
2022-08-05T00:32:15.336Z,101638.03
2022-08-05T00:35:04.789Z,101637.16
2022-08-05T00:37:35.881Z,101630.34
2022-08-05T00:40:26.613Z,101623.94
2022-08-05T00:42:59.799Z,101638.94
2022-08-05T00:45:39.162Z,101641.16
2022-08-05T00:48:27.460Z,101646.06
2022-08-05T00:50:58.538Z,101631.28
2022-08-05T00:54:00.618Z,101638.38
2022-08-05T00:56:14.947Z,101642.09
2022-08-05T00:58:45.428Z,101649.41
2022-08-05T01:01:15.429Z,101655.84
2022-08-05T01:03:52.608Z,101648.91
2022-08-05T01:06:19.558Z,101642.03
2022-08-05T01:08:47.393Z,101636.00
2022-08-05T01:11:33.721Z,101638.94
2022-08-05T01:14:18.101Z,101642.81
2022-08-05T01:17:05.367Z,101640.34
2022-08-05T01:20:02.184Z,101655.34
2022-08-05T01:23:23.362Z,101645.63
2022-08-05T01:26:35.630Z,101649.44
2022-08-05T01:29:11.155Z,101654.91
2022-08-05T01:31:44.885Z,101655.44
2022-08-05T01:34:26.688Z,101649.97
2022-08-05T01:37:24.409Z,101656.25
2022-08-05T01:39:58.922Z,101652.63
2022-08-05T01:42:28.412Z,101653.13
2022-08-05T01:45:02.322Z,101658.59
2022-08-05T01:47:38.825Z,101666.03
2022-08-05T01:50:17.727Z,101679.44
2022-08-05T01:52:50.001Z,101679.94
2022-08-05T01:55:20.877Z,101681.03
2022-08-05T01:58:09.771Z,101674.41
2022-08-05T02:00:42.370Z,101667.81
2022-08-05T02:03:39.749Z,101665.59
2022-08-05T02:06:23.918Z,101668.06
2022-08-05T02:08:58.949Z,101673.41
2022-08-05T02:11:52.481Z,101667.28
2022-08-05T02:14:47.103Z,101676.53
2022-08-05T02:18:27.916Z,101656.59
2022-08-05T02:20:22.250Z,101656.75
2022-08-05T02:23:01.470Z,101661.16
2022-08-05T02:25:49.419Z,101666.63
2022-08-05T02:28:28.633Z,101665.22
2022-08-05T02:31:21.592Z,101673.75
2022-08-05T02:34:11.805Z,101655.78
2022-08-05T02:36:49.417Z,101658.19
2022-08-05T02:39:20.528Z,101663.66
2022-08-05T02:42:00.475Z,101660.44
2022-08-05T02:44:30.585Z,101645.63
2022-08-05T02:47:00.711Z,101651.00
2022-08-05T02:49:36.935Z,101652.00
2022-08-05T02:52:30.167Z,101649.03
2022-08-05T02:55:01.705Z,101646.13
2022-08-05T02:58:11.773Z,101650.28
2022-08-05T03:00:20.357Z,101647.28
2022-08-05T03:02:49.034Z,101643.31
2022-08-05T03:05:17.400Z,101641.34
2022-08-05T03:08:04.603Z,101641.50
2022-08-05T03:10:35.998Z,101657.06
2022-08-05T03:13:16.885Z,101651.28
2022-08-05T03:15:48.473Z,101653.75
2022-08-05T03:18:18.911Z,101646.31
2022-08-05T03:20:56.883Z,101656.94
2022-08-05T03:23:24.789Z,101660.72
2022-08-05T03:26:04.281Z,101664.78
2022-08-05T03:28:38.833Z,101663.75
2022-08-05T03:31:06.363Z,101659.47
2022-08-05T03:33:51.080Z,101646.31
2022-08-05T03:36:30.126Z,101645.75
2022-08-05T03:38:58.113Z,101653.38
2022-08-05T03:41:25.416Z,101653.63
2022-08-05T03:44:11.508Z,101657.59
2022-08-05T03:46:38.997Z,101651.28
2022-08-05T03:49:06.548Z,101652.59
2022-08-05T03:52:48.462Z,101654.75
2022-08-05T03:56:04.182Z,101656.72
2022-08-05T03:57:45.943Z,101663.44
2022-08-05T04:00:16.400Z,101668.06
2022-08-05T04:02:57.578Z,101661.78
2022-08-05T04:05:33.214Z,101667.81
2022-08-05T04:08:30.180Z,101668.78
2022-08-05T04:10:55.646Z,101668.22
2022-08-05T04:13:22.764Z,101660.53
2022-08-05T04:16:02.870Z,101664.00
2022-08-05T04:18:32.200Z,101659.13
2022-08-05T04:21:02.467Z,101664.56
2022-08-05T04:23:57.151Z,101661.00
2022-08-05T04:26:19.173Z,101669.94
2022-08-05T04:28:51.306Z,101675.06
2022-08-05T04:31:19.915Z,101672.44
2022-08-05T04:34:18.182Z,101671.75
2022-08-05T04:36:45.811Z,101677.44
2022-08-05T04:39:16.910Z,101678.47
2022-08-05T04:41:45.860Z,101672.09
2022-08-05T04:44:21.012Z,101671.75
2022-08-05T04:46:51.411Z,101674.22
2022-08-05T04:49:24.572Z,101669.50
2022-08-05T04:52:00.229Z,101668.94
2022-08-05T04:54:27.613Z,101671.06
2022-08-05T04:56:58.953Z,101677.22
2022-08-05T04:59:39.131Z,101678.28
2022-08-05T05:02:41.223Z,101664.16
2022-08-05T05:05:02.818Z,101669.03
2022-08-05T05:07:32.181Z,101674.47
2022-08-05T05:10:04.076Z,101682.09
2022-08-05T05:12:31.168Z,101686.72
2022-08-05T05:14:58.156Z,101684.97
2022-08-05T05:17:55.573Z,101679.84
2022-08-05T05:20:13.572Z,101684.22
2022-08-05T05:22:41.535Z,101689.09
2022-08-05T05:25:16.504Z,101682.09
2022-08-05T05:27:53.591Z,101686.47
2022-08-05T05:30:31.184Z,101687.03
2022-08-05T05:33:09.042Z,101693.66
2022-08-05T05:35:45.490Z,101687.13
2022-08-05T05:38:13.798Z,101688.88
2022-08-05T05:40:50.187Z,101687.81
2022-08-05T05:43:22.112Z,101684.50
2022-08-05T05:46:12.270Z,101684.59
2022-08-05T05:48:44.027Z,101681.88
2022-08-05T05:51:13.090Z,101693.94
2022-08-05T05:53:54.072Z,101696.00
2022-08-05T05:56:32.964Z,101696.44
2022-08-05T05:59:08.056Z,101691.63
2022-08-05T06:01:40.761Z,101694.72
2022-08-05T06:04:24.483Z,101701.09
2022-08-05T06:06:51.458Z,101703.25
2022-08-05T06:09:25.596Z,101709.69
2022-08-05T06:12:01.401Z,101707.44
2022-08-05T06:14:33.274Z,101703.47
2022-08-05T06:17:31.864Z,101704.47
2022-08-05T06:19:56.958Z,101709.16
2022-08-05T06:22:35.335Z,101709.38
2022-08-05T06:25:24.535Z,101717.84
2022-08-05T06:28:10.783Z,101716.09
2022-08-05T06:30:38.564Z,101718.25
2022-08-05T06:33:05.501Z,101709.00
2022-08-05T06:36:07.341Z,101720.59
2022-08-05T06:38:36.407Z,101717.28
2022-08-05T06:41:05.305Z,101720.56
2022-08-05T06:43:57.506Z,101725.69
2022-08-05T06:46:23.778Z,101728.09
2022-08-05T06:48:58.756Z,101722.09
2022-08-05T06:51:29.794Z,101718.38
2022-08-05T06:54:02.528Z,101717.88
2022-08-05T06:56:33.336Z,101727.78
2022-08-05T06:59:03.643Z,101727.78
2022-08-05T07:01:35.707Z,101734.94
2022-08-05T07:04:03.888Z,101737.41
2022-08-05T07:06:31.941Z,101744.28
2022-08-05T07:09:00.288Z,101748.66
2022-08-05T07:11:32.893Z,101740.97
2022-08-05T07:14:29.600Z,101749.19
2022-08-05T07:18:00.996Z,101755.78
2022-08-05T07:22:39.703Z,101760.72
2022-08-05T07:25:54.805Z,101773.72
2022-08-05T07:28:03.800Z,101763.47
2022-08-05T07:30:38.456Z,101778.56
2022-08-05T07:33:15.607Z,101774.69
2022-08-05T07:36:01.750Z,101775.44
2022-08-05T07:38:33.803Z,101779.22
2022-08-05T07:42:09.232Z,101786.50
2022-08-05T07:44:00.500Z,101783.59
2022-08-05T07:46:31.308Z,101772.75
2022-08-05T07:49:05.964Z,101786.38
2022-08-05T07:51:41.079Z,101792.72
2022-08-05T07:54:26.772Z,101792.03
2022-08-05T07:57:02.704Z,101797.06
2022-08-05T07:59:46.977Z,101791.13
2022-08-05T08:02:17.564Z,101792.03
2022-08-05T08:04:49.761Z,101797.34
2022-08-05T08:07:22.094Z,101804.94
2022-08-05T08:09:52.299Z,101811.69
2022-08-05T08:12:36.993Z,101811.34
2022-08-05T08:15:15.038Z,101810.19
2022-08-05T08:17:49.914Z,101813.88
2022-08-05T08:20:43.862Z,101813.75
2022-08-05T08:24:00.273Z,101817.69
2022-08-05T08:25:59.356Z,101816.91
2022-08-05T08:28:36.716Z,101819.47
2022-08-05T08:31:09.636Z,101814.31
2022-08-05T08:33:42.002Z,101821.31
2022-08-05T08:36:37.411Z,101825.13
2022-08-05T08:38:58.246Z,101836.06
2022-08-05T08:41:52.446Z,101833.31
2022-08-05T08:45:20.090Z,101838.00
2022-08-05T08:47:47.668Z,101846.97
2022-08-05T08:50:05.802Z,101841.19
2022-08-05T08:52:53.040Z,101850.81
2022-08-05T08:56:01.726Z,101856.25
2022-08-05T08:58:12.822Z,101848.72
2022-08-05T09:00:42.485Z,101847.31
2022-08-05T09:03:16.284Z,101848.69
2022-08-05T09:06:09.180Z,101849.53
2022-08-05T09:08:34.869Z,101854.03
2022-08-05T09:11:04.383Z,101868.75
2022-08-05T09:14:01.199Z,101868.41
2022-08-05T09:16:26.825Z,101868.69
2022-08-05T09:18:55.483Z,101870.84
2022-08-05T09:22:17.685Z,101876.94
2022-08-05T09:24:13.067Z,101868.78
2022-08-05T09:26:46.166Z,101863.50
2022-08-05T09:29:16.262Z,101872.69
2022-08-05T09:32:40.933Z,101865.69
2022-08-05T09:34:55.921Z,101877.63
2022-08-05T09:38:12.093Z,101887.34
2022-08-05T09:40:41.062Z,101887.31
2022-08-05T09:43:41.627Z,101900.84
2022-08-05T09:46:31.644Z,101907.19
2022-08-05T09:49:07.955Z,101902.94
2022-08-05T09:51:50.051Z,101907.47
2022-08-05T09:54:21.270Z,101913.16
2022-08-05T09:56:57.384Z,101909.78
2022-08-05T09:59:27.546Z,101913.63
2022-08-05T10:01:58.194Z,101918.88
2022-08-05T10:04:38.585Z,101923.28
2022-08-05T10:07:21.001Z,101923.84
2022-08-05T10:10:14.443Z,101930.13
2022-08-05T10:12:49.191Z,101930.19
2022-08-05T10:15:22.724Z,101931.56
2022-08-05T10:18:17.321Z,101918.63
2022-08-05T10:20:47.853Z,101921.91
2022-08-05T10:23:55.437Z,101923.00
2022-08-05T10:26:13.995Z,101931.22
2022-08-05T10:28:44.113Z,101928.25
2022-08-05T10:32:48.662Z,101931.78
2022-08-05T10:34:02.649Z,101941.19
2022-08-05T10:36:31.213Z,101938.91
2022-08-05T10:39:11.692Z,101938.09
2022-08-05T10:42:14.603Z,101932.28
2022-08-05T10:44:47.116Z,101935.06
2022-08-05T10:47:26.237Z,101939.00
2022-08-05T10:50:32.526Z,101947.75
2022-08-05T10:53:01.029Z,101939.56
2022-08-05T10:55:38.597Z,101949.16
2022-08-05T10:58:18.069Z,101953.44
2022-08-05T11:00:48.446Z,101959.84
2022-08-05T11:03:26.362Z,101963.00
2022-08-05T11:06:15.344Z,101975.72
2022-08-05T11:09:46.421Z,101976.66
2022-08-05T11:12:37.288Z,101981.72
2022-08-05T11:15:21.143Z,101972.81
2022-08-05T11:17:57.140Z,101973.97
2022-08-05T11:20:50.952Z,101981.19
2022-08-05T11:24:04.360Z,101983.78
2022-08-05T11:26:32.851Z,101992.88
2022-08-05T11:29:12.517Z,101990.66
2022-08-05T11:31:57.234Z,101993.41
2022-08-05T11:34:51.638Z,101996.78
2022-08-05T11:38:37.399Z,102002.53
2022-08-05T11:41:01.032Z,102000.03
2022-08-05T11:44:06.214Z,102015.75
2022-08-05T11:46:33.273Z,102024.84
2022-08-05T11:49:03.705Z,102029.16
2022-08-05T11:51:44.077Z,102028.28
2022-08-05T11:54:34.376Z,102031.91
2022-08-05T11:57:07.908Z,102034.09
2022-08-05T11:59:49.564Z,102034.19
2022-08-05T12:02:30.616Z,102042.94
2022-08-05T12:05:07.494Z,102043.47
2022-08-05T12:08:08.585Z,102055.59
2022-08-05T12:10:43.431Z,102048.44
2022-08-05T12:13:16.830Z,102051.19
2022-08-05T12:15:49.768Z,102057.22
2022-08-05T12:18:32.773Z,102059.72
2022-08-05T12:21:39.153Z,102058.59
2022-08-05T12:24:17.570Z,102064.66
2022-08-05T12:26:50.692Z,102066.97
2022-08-05T12:29:22.939Z,102077.09
2022-08-05T12:32:02.209Z,102076.47
2022-08-05T12:34:36.998Z,102079.28
2022-08-05T12:37:10.870Z,102082.00
2022-08-05T12:39:48.493Z,102084.75
2022-08-05T12:42:21.012Z,102089.13
2022-08-05T12:44:48.996Z,102098.22
2022-08-05T12:47:30.957Z,102094.03
2022-08-05T12:50:04.854Z,102109.41
2022-08-05T12:52:41.951Z,102099.00
2022-08-05T12:55:26.336Z,102100.16
2022-08-05T12:58:39.029Z,102098.44
2022-08-05T13:02:01.518Z,102108.94
2022-08-05T13:03:38.879Z,102111.16
2022-08-05T13:06:17.631Z,102111.63
2022-08-05T13:08:50.684Z,102109.75
2022-08-05T13:11:25.631Z,102118.31
2022-08-05T13:14:19.694Z,102112.91
2022-08-05T13:16:54.751Z,102123.94
2022-08-05T13:19:51.605Z,102121.53
2022-08-05T13:22:29.379Z,102130.38
2022-08-05T13:25:00.482Z,102117.38
2022-08-05T13:27:44.092Z,102117.75
2022-08-05T13:30:34.476Z,102111.72
2022-08-05T13:33:03.408Z,102122.44
2022-08-05T13:35:47.436Z,102133.09
2022-08-05T13:38:28.193Z,102126.56
2022-08-05T13:41:01.368Z,102133.44
2022-08-05T13:43:45.235Z,102135.16
2022-08-05T13:46:26.441Z,102134.91
2022-08-05T13:49:03.980Z,102140.25
2022-08-05T13:51:40.005Z,102147.72
2022-08-05T13:54:12.684Z,102149.66
2022-08-05T13:56:45.262Z,102141.00
2022-08-05T13:59:24.293Z,102146.47
2022-08-05T14:02:02.282Z,102143.16
2022-08-05T14:04:51.764Z,102143.78
2022-08-05T14:07:25.764Z,102149.94
2022-08-05T14:10:18.678Z,102157.34
2022-08-05T14:12:48.875Z,102159.47
2022-08-05T14:16:06.075Z,102156.03
2022-08-05T14:18:04.038Z,102158.41
2022-08-05T14:20:32.719Z,102164.31
2022-08-05T14:23:00.465Z,102157.28
2022-08-05T14:25:30.312Z,102173.34
2022-08-05T14:27:58.405Z,102170.03
2022-08-05T14:30:27.707Z,102180.19
2022-08-05T14:32:55.287Z,102178.09
2022-08-05T14:35:37.336Z,102174.84
2022-08-05T14:38:32.384Z,102184.78
2022-08-05T14:41:06.283Z,102182.03
2022-08-05T14:43:59.355Z,102184.66
2022-08-05T14:46:28.357Z,102187.31
2022-08-05T14:48:58.996Z,102196.53
2022-08-05T14:51:31.163Z,102190.63
2022-08-05T14:54:26.497Z,102198.28
2022-08-05T14:56:47.229Z,102195.31
2022-08-05T14:59:15.204Z,102195.38
2022-08-05T15:01:48.987Z,102202.91
2022-08-05T15:04:20.513Z,102203.53
2022-08-05T15:06:49.903Z,102205.84
2022-08-05T15:09:51.889Z,102201.88
2022-08-05T15:12:16.999Z,102201.16
2022-08-05T15:14:50.039Z,102202.81
2022-08-05T15:17:46.289Z,102199.41
2022-08-05T15:20:15.640Z,102201.25
2022-08-05T15:22:44.987Z,102206.94
2022-08-05T15:25:14.092Z,102215.22
2022-08-05T15:27:42.917Z,102217.19
2022-08-05T15:30:18.855Z,102217.38
2022-08-05T15:32:46.712Z,102219.59
2022-08-05T15:35:14.900Z,102222.78
2022-08-05T15:38:31.900Z,102221.25
2022-08-05T15:41:00.282Z,102229.53
2022-08-05T15:43:20.473Z,102233.44
2022-08-05T15:46:00.551Z,102229.53
2022-08-05T15:48:28.823Z,102231.47
2022-08-05T15:50:56.427Z,102228.63
2022-08-05T15:53:26.479Z,102233.38
2022-08-05T15:56:09.176Z,102236.09
2022-08-05T15:58:41.134Z,102228.38
2022-08-05T16:01:17.044Z,102227.56
2022-08-05T16:03:48.323Z,102226.63
2022-08-05T16:06:20.377Z,102234.31
2022-08-05T16:08:50.362Z,102235.72
2022-08-05T16:11:20.821Z,102243.09
2022-08-05T16:14:05.597Z,102244.75
2022-08-05T16:16:35.121Z,102240.63
2022-08-05T16:19:02.453Z,102248.25
2022-08-05T16:22:00.661Z,102246.44
2022-08-05T16:24:40.241Z,102243.19
2022-08-05T16:27:05.216Z,102252.31
2022-08-05T16:29:37.329Z,102254.00
2022-08-05T16:32:09.717Z,102246.19
2022-08-05T16:34:39.232Z,102261.03
2022-08-05T16:38:03.378Z,102265.34
2022-08-05T16:40:05.219Z,102272.66
2022-08-05T16:42:34.562Z,102281.13
2022-08-05T16:45:02.009Z,102276.31
2022-08-05T16:47:36.193Z,102276.31
2022-08-05T16:50:13.917Z,102290.25
2022-08-05T16:52:45.906Z,102284.94
2022-08-05T16:55:16.369Z,102291.88
2022-08-05T16:57:53.681Z,102292.22
2022-08-05T17:00:34.386Z,102290.81
2022-08-05T17:03:15.180Z,102283.25
2022-08-05T17:05:51.733Z,102281.69
2022-08-05T17:08:36.734Z,102290.94
2022-08-05T17:11:12.845Z,102302.13
2022-08-05T17:13:44.158Z,102294.81
2022-08-05T17:16:29.763Z,102289.38
2022-08-05T17:18:59.452Z,102305.44
2022-08-05T17:21:35.663Z,102299.47
2022-08-05T17:24:14.328Z,102307.28
2022-08-05T17:26:53.013Z,102302.16
2022-08-05T17:29:22.341Z,102295.03
2022-08-05T17:31:58.216Z,102303.19
2022-08-05T17:34:29.821Z,102316.28
2022-08-05T17:37:00.465Z,102314.72
2022-08-05T17:39:34.290Z,102319.97
2022-08-05T17:42:17.825Z,102329.13
2022-08-05T17:44:51.641Z,102325.91
2022-08-05T17:47:23.064Z,102334.16
2022-08-05T17:50:04.005Z,102341.50
2022-08-05T17:52:35.096Z,102348.28
2022-08-05T17:55:21.801Z,102343.91
2022-08-05T17:57:50.204Z,102351.56
2022-08-05T18:00:18.576Z,102352.78
2022-08-05T18:02:47.179Z,102353.38
2022-08-05T18:05:16.900Z,102352.31
2022-08-05T18:07:44.864Z,102362.91
2022-08-05T18:10:20.533Z,102359.44
2022-08-05T18:12:49.573Z,102361.28
2022-08-05T18:15:16.658Z,102371.56
2022-08-05T18:17:58.959Z,102361.66
2022-08-05T18:20:32.140Z,102370.06
2022-08-05T18:23:11.349Z,102372.81
2022-08-05T18:25:45.557Z,102381.59
2022-08-05T18:28:16.229Z,102384.09
2022-08-05T18:30:51.237Z,102384.47
2022-08-05T18:33:23.057Z,102383.22
2022-08-05T18:36:04.936Z,102383.00
2022-08-05T18:38:37.045Z,102385.56
2022-08-05T18:41:56.162Z,102393.09
2022-08-05T18:43:58.083Z,102405.56
2022-08-05T18:46:33.019Z,102399.19
2022-08-05T18:49:23.207Z,102407.75
2022-08-05T18:52:16.089Z,102407.22
2022-08-05T18:54:45.880Z,102415.03
2022-08-05T18:57:15.778Z,102420.31
2022-08-05T19:00:02.302Z,102415.84
2022-08-05T19:02:32.663Z,102428.81
2022-08-05T19:06:05.550Z,102420.94
2022-08-05T19:07:49.811Z,102427.72
2022-08-05T19:10:28.418Z,102428.81
2022-08-05T19:13:02.417Z,102424.16
2022-08-05T19:15:58.109Z,102423.25
2022-08-05T19:18:21.949Z,102420.66
2022-08-05T19:20:52.727Z,102439.09
2022-08-05T19:24:05.773Z,102430.91
2022-08-05T19:26:13.753Z,102439.78
2022-08-05T19:28:43.947Z,102445.59
2022-08-05T19:31:12.894Z,102446.97
2022-08-05T19:33:48.426Z,102458.06
2022-08-05T19:36:25.991Z,102449.50
2022-08-05T19:39:00.584Z,102462.75
2022-08-05T19:41:58.250Z,102457.50
2022-08-05T19:44:18.831Z,102462.50
2022-08-05T19:46:46.048Z,102468.59
2022-08-05T19:49:17.256Z,102471.78
2022-08-05T19:52:04.278Z,102476.41
2022-08-05T19:54:34.351Z,102480.63
2022-08-05T19:57:08.461Z,102478.13
2022-08-05T19:59:55.859Z,102480.41
2022-08-05T20:02:33.566Z,102482.94
2022-08-05T20:05:09.634Z,102495.72
2022-08-05T20:07:48.250Z,102494.50
2022-08-05T20:10:19.361Z,102493.25
2022-08-05T20:12:49.497Z,102493.25
2022-08-05T20:15:48.503Z,102500.34
2022-08-05T20:18:10.533Z,102494.28
2022-08-05T20:20:57.197Z,102509.38
2022-08-05T20:23:40.449Z,102512.13
2022-08-05T20:26:15.901Z,102517.16
2022-08-05T20:28:56.131Z,102511.91
2022-08-05T20:31:43.086Z,102516.53
2022-08-05T20:34:16.817Z,102513.38
2022-08-05T20:36:48.891Z,102518.41
2022-08-05T20:39:17.147Z,102525.50
2022-08-05T20:41:45.430Z,102525.28
2022-08-05T20:44:29.389Z,102533.03
2022-08-05T20:47:03.779Z,102533.84
2022-08-05T20:49:33.220Z,102530.72
2022-08-05T20:52:05.456Z,102545.78
2022-08-05T20:54:42.819Z,102547.00
2022-08-05T20:57:41.803Z,102541.75
2022-08-05T21:00:35.087Z,102546.72
2022-08-05T21:03:07.523Z,102546.31
2022-08-05T21:05:53.890Z,102547.13
2022-08-05T21:08:32.842Z,102552.72
2022-08-05T21:11:12.283Z,102554.59
2022-08-05T21:13:55.758Z,102554.81
2022-08-05T21:16:29.099Z,102550.41
2022-08-05T21:18:59.956Z,102552.66
2022-08-05T21:21:39.731Z,102550.56
2022-08-05T21:24:19.755Z,102555.53
2022-08-05T21:26:53.517Z,102553.16
2022-08-05T21:29:31.421Z,102558.16
2022-08-05T21:31:59.951Z,102551.41
2022-08-05T21:34:28.178Z,102558.97
2022-08-05T21:36:55.461Z,102556.78
2022-08-05T21:39:26.653Z,102559.50
2022-08-05T21:42:01.205Z,102564.59
2022-08-05T21:44:29.346Z,102574.00
2022-08-05T21:46:57.988Z,102572.72
2022-08-05T21:49:58.858Z,102566.63
2022-08-05T21:52:22.735Z,102581.41
2022-08-05T21:54:56.154Z,102576.56
2022-08-05T21:57:31.973Z,102579.47
2022-08-05T22:00:10.746Z,102584.19
2022-08-05T22:02:38.973Z,102575.19
2022-08-05T22:05:09.105Z,102586.41
2022-08-05T22:07:39.756Z,102574.69
2022-08-05T22:10:26.840Z,102575.44
2022-08-05T22:12:57.404Z,102583.00
2022-08-05T22:16:01.060Z,102583.31
2022-08-05T22:18:14.461Z,102575.72
2022-08-05T22:20:41.972Z,102591.19
2022-08-05T22:24:02.160Z,102584.88
2022-08-05T22:26:35.234Z,102589.25
2022-08-05T22:29:03.113Z,102586.16
2022-08-05T22:31:31.506Z,102591.63
2022-08-05T22:34:20.191Z,102600.16
2022-08-05T22:36:56.511Z,102602.34
2022-08-05T22:39:32.558Z,102599.63
2022-08-05T22:42:12.175Z,102602.91
2022-08-05T22:44:48.157Z,102602.06
2022-08-05T22:47:28.916Z,102604.13
2022-08-05T22:50:20.112Z,102606.00
2022-08-05T22:52:51.406Z,102608.16
2022-08-05T22:55:21.844Z,102611.88
2022-08-05T22:57:53.546Z,102608.81
2022-08-05T23:00:23.538Z,102609.25
2022-08-05T23:02:53.541Z,102619.72
2022-08-05T23:05:22.621Z,102614.09
2022-08-05T23:07:51.183Z,102613.16
2022-08-05T23:10:20.971Z,102621.47
2022-08-05T23:12:54.579Z,102623.25
2022-08-05T23:15:29.414Z,102621.56
2022-08-05T23:18:03.349Z,102624.47
2022-08-05T23:20:37.124Z,102625.53
2022-08-05T23:23:05.940Z,102626.75
2022-08-05T23:25:51.258Z,102633.44
2022-08-05T23:28:22.036Z,102631.84
2022-08-05T23:30:53.516Z,102636.16
2022-08-05T23:33:26.203Z,102641.44
2022-08-05T23:36:10.165Z,102637.16
2022-08-05T23:38:37.877Z,102640.25
2022-08-05T23:41:04.931Z,102647.13
2022-08-05T23:44:04.439Z,102651.59
2022-08-05T23:46:21.987Z,102637.69
2022-08-05T23:49:00.460Z,102644.06
2022-08-05T23:51:56.899Z,102642.38
2022-08-05T23:54:30.240Z,102651.38
2022-08-05T23:57:03.766Z,102656.44
2022-08-05T23:59:37.754Z,102661.44
